Time;durP1;ratioP1;P1;durP2;ratioP2;P2;SDS_P1;SDS_P2;PMS_P1;PMS_P2;Temp;Humidity;BMP_temperature;BMP_pressure;BME280_temperature;BME280_humidity;BME280_pressure;Samples;Min_cycle;Max_cycle;Signal;HPM_P1;HPM_P2
2020/12/31 00:02:13;0.00;0.00;0.62;0.00;0.00;0.62;1.50;1.10;;;20.80;28.10;;;;;;2265447;61;20726;-62
2020/12/31 00:04:58;0.00;0.00;0.62;0.00;0.00;0.62;1.47;1.20;;;20.80;28.10;;;;;;2266298;61;20373;-61
2020/12/31 00:07:42;0.00;0.00;0.62;0.00;0.00;0.62;1.40;1.10;;;20.80;28.10;;;;;;2266068;61;20415;-62
2020/12/31 00:10:30;0.00;0.00;0.62;0.00;0.00;0.62;2.27;1.30;;;20.80;28.10;;;;;;2266138;61;20412;-63
2020/12/31 00:13:16;0.00;0.00;0.62;0.00;0.00;0.62;1.40;1.03;;;20.80;28.10;;;;;;2262871;61;20752;-62
2020/12/31 00:16:02;0.00;0.00;0.62;0.00;0.00;0.62;1.80;1.03;;;20.80;28.10;;;;;;2266157;61;20353;-63
2020/12/31 00:18:46;0.00;0.00;0.62;0.00;0.00;0.62;2.00;1.30;;;20.80;28.10;;;;;;2266256;61;20475;-63
2020/12/31 00:21:31;0.00;0.00;0.62;0.00;0.00;0.62;1.60;1.17;;;20.80;28.10;;;;;;2265974;61;20372;-63
2020/12/31 00:24:15;0.00;0.00;0.62;0.00;0.00;0.62;1.50;1.20;;;20.80;28.10;;;;;;2266196;61;20429;-64
2020/12/31 00:27:00;0.00;0.00;0.62;0.00;0.00;0.62;1.57;1.10;;;20.80;28.10;;;;;;2266300;61;20353;-63
2020/12/31 00:29:44;0.00;0.00;0.62;0.00;0.00;0.62;1.80;1.23;;;20.80;28.20;;;;;;2265912;61;20389;-65
2020/12/31 00:32:30;0.00;0.00;0.62;0.00;0.00;0.62;1.67;1.27;;;20.80;28.20;;;;;;2266102;61;20354;-64
2020/12/31 00:35:18;0.00;0.00;0.62;0.00;0.00;0.62;1.43;1.20;;;20.80;28.20;;;;;;2266045;61;20369;-62
2020/12/31 00:38:03;0.00;0.00;0.62;0.00;0.00;0.62;1.50;1.10;;;20.80;28.20;;;;;;2266090;61;20683;-62
2020/12/31 00:40:48;0.00;0.00;0.62;0.00;0.00;0.62;1.57;1.23;;;20.80;28.20;;;;;;2266167;61;20381;-65
2020/12/31 00:43:33;0.00;0.00;0.62;0.00;0.00;0.62;1.50;1.03;;;20.80;28.10;;;;;;2265951;61;20353;-64
2020/12/31 00:46:18;0.00;0.00;0.62;0.00;0.00;0.62;1.70;1.40;;;20.80;28.10;;;;;;2266194;61;20624;-67
2020/12/31 00:49:04;0.00;0.00;0.62;0.00;0.00;0.62;1.40;1.10;;;20.80;28.10;;;;;;2266072;61;20424;-63
2020/12/31 00:51:49;0.00;0.00;0.62;0.00;0.00;0.62;1.60;1.03;;;20.80;28.20;;;;;;2265955;61;20741;-65
2020/12/31 00:54:34;0.00;0.00;0.62;0.00;0.00;0.62;1.50;1.13;;;20.80;28.20;;;;;;2266222;61;20357;-62
2020/12/31 00:57:19;0.00;0.00;0.62;0.00;0.00;0.62;4.07;1.50;;;20.80;28.20;;;;;;2265801;61;20389;-63
2020/12/31 01:00:05;0.00;0.00;0.62;0.00;0.00;0.62;2.47;1.67;;;20.80;28.30;;;;;;2262735;61;20421;-63
2020/12/31 01:02:51;0.00;0.00;0.62;0.00;0.00;0.62;1.90;1.43;;;20.80;28.40;;;;;;2262932;61;20361;-65
2020/12/31 01:05:37;0.00;0.00;0.62;0.00;0.00;0.62;1.90;1.30;;;20.80;28.40;;;;;;2265720;61;20389;-67
2020/12/31 01:08:21;0.00;0.00;0.62;0.00;0.00;0.62;2.37;1.20;;;20.80;28.40;;;;;;2265782;61;20394;-65
2020/12/31 01:11:06;0.00;0.00;0.62;0.00;0.00;0.62;1.50;1.27;;;20.80;28.40;;;;;;2262721;61;20377;-65
2020/12/31 01:13:51;0.00;0.00;0.62;0.00;0.00;0.62;1.43;1.17;;;20.80;28.40;;;;;;2265747;61;20402;-67
2020/12/31 01:16:35;0.00;0.00;0.62;0.00;0.00;0.62;2.10;1.20;;;20.80;28.40;;;;;;2265958;61;20408;-65
2020/12/31 01:19:20;0.00;0.00;0.62;0.00;0.00;0.62;1.80;1.20;;;20.80;28.40;;;;;;2265969;61;20353;-64
2020/12/31 01:22:05;0.00;0.00;0.62;0.00;0.00;0.62;2.33;1.40;;;20.80;28.40;;;;;;2265933;61;20416;-66
2020/12/31 01:24:52;0.00;0.00;0.62;0.00;0.00;0.62;1.70;1.20;;;20.80;28.30;;;;;;2265968;61;20366;-66
2020/12/31 01:27:38;0.00;0.00;0.62;0.00;0.00;0.62;1.57;1.47;;;20.80;28.30;;;;;;2265679;61;20756;-65
2020/12/31 01:30:23;0.00;0.00;0.62;0.00;0.00;0.62;2.87;1.67;;;20.80;28.20;;;;;;2265957;61;20639;-65
2020/12/31 01:33:07;0.00;0.00;0.62;0.00;0.00;0.62;1.90;1.30;;;20.80;28.20;;;;;;2265921;61;20693;-64
2020/12/31 01:35:52;0.00;0.00;0.62;0.00;0.00;0.62;1.90;1.37;;;20.80;28.20;;;;;;2265717;61;20388;-64
2020/12/31 01:38:37;0.00;0.00;0.62;0.00;0.00;0.62;1.67;1.20;;;20.80;28.20;;;;;;2265836;61;20881;-65
2020/12/31 01:41:24;0.00;0.00;0.62;0.00;0.00;0.62;2.03;1.63;;;20.80;28.30;;;;;;2265903;61;20467;-65
2020/12/31 01:44:10;0.00;0.00;0.62;0.00;0.00;0.62;1.40;1.00;;;20.80;28.10;;;;;;2265925;61;20817;-64
2020/12/31 01:46:58;0.00;0.00;0.62;0.00;0.00;0.62;1.40;1.10;;;20.80;28.20;;;;;;2265913;61;20376;-65
2020/12/31 01:49:45;0.00;0.00;0.62;0.00;0.00;0.62;1.83;1.17;;;20.80;28.20;;;;;;2265483;61;20450;-64
2020/12/31 01:52:32;0.00;0.00;0.62;0.00;0.00;0.62;3.23;1.70;;;20.80;28.10;;;;;;2265839;61;20787;-64
2020/12/31 01:55:18;0.00;0.00;0.62;0.00;0.00;0.62;1.80;1.40;;;20.80;28.20;;;;;;2265846;61;20361;-64
2020/12/31 01:58:03;0.00;0.00;0.62;0.00;0.00;0.62;1.40;1.27;;;20.80;28.20;;;;;;2264421;61;20604;-65
2020/12/31 02:00:48;0.00;0.00;0.62;0.00;0.00;0.62;1.30;0.90;;;20.80;28.20;;;;;;2266292;61;20600;-64
2020/12/31 02:03:33;0.00;0.00;0.62;0.00;0.00;0.62;1.53;1.00;;;20.80;28.20;;;;;;2266235;61;20573;-64
2020/12/31 02:06:20;0.00;0.00;0.62;0.00;0.00;0.62;1.57;1.10;;;20.80;28.70;;;;;;2265931;61;20354;-65
2020/12/31 02:09:05;0.00;0.00;0.62;0.00;0.00;0.62;1.57;1.00;;;20.80;28.20;;;;;;2266164;61;20369;-65
2020/12/31 02:11:50;0.00;0.00;0.62;0.00;0.00;0.62;1.80;1.20;;;20.80;28.20;;;;;;2265683;61;20372;-65
2020/12/31 02:14:35;0.00;0.00;0.62;0.00;0.00;0.62;1.60;1.37;;;20.80;28.20;;;;;;2266271;61;20704;-65
2020/12/31 02:17:20;0.00;0.00;0.62;0.00;0.00;0.62;1.30;0.90;;;20.80;28.20;;;;;;2266116;61;20417;-64
2020/12/31 02:20:04;0.00;0.00;0.62;0.00;0.00;0.62;2.33;1.30;;;20.80;28.20;;;;;;2265574;61;20676;-63
2020/12/31 02:22:50;0.00;0.00;0.62;0.00;0.00;0.62;1.30;1.00;;;20.80;28.20;;;;;;2266031;61;20638;-65
2020/12/31 02:25:34;0.00;0.00;0.62;0.00;0.00;0.62;1.63;1.20;;;20.80;28.20;;;;;;2266175;61;20369;-64
2020/12/31 02:28:19;0.00;0.00;0.62;0.00;0.00;0.62;1.60;0.90;;;20.80;28.20;;;;;;2265704;61;20396;-65
2020/12/31 02:31:04;0.00;0.00;0.62;0.00;0.00;0.62;1.53;1.00;;;20.80;28.20;;;;;;2266098;61;20443;-67
2020/12/31 02:33:50;0.00;0.00;0.62;0.00;0.00;0.62;1.40;1.20;;;20.80;28.70;;;;;;2266021;61;20390;-65
2020/12/31 02:36:38;0.00;0.00;0.62;0.00;0.00;0.62;1.50;1.00;;;20.80;28.20;;;;;;2265865;61;20388;-66
2020/12/31 02:39:23;0.00;0.00;0.62;0.00;0.00;0.62;1.40;0.90;;;20.80;28.20;;;;;;2264808;61;20718;-65
2020/12/31 02:42:08;0.00;0.00;0.62;0.00;0.00;0.62;1.80;1.27;;;20.80;28.20;;;;;;2265409;61;20797;-65
2020/12/31 02:44:52;0.00;0.00;0.62;0.00;0.00;0.62;1.30;0.90;;;20.80;28.20;;;;;;2265667;61;20702;-66
2020/12/31 02:47:41;0.00;0.00;0.62;0.00;0.00;0.62;1.30;0.90;;;20.80;28.30;;;;;;2265590;61;20572;-66
2020/12/31 02:50:25;0.00;0.00;0.62;0.00;0.00;0.62;1.60;1.30;;;20.80;28.30;;;;;;2265383;61;20368;-66
2020/12/31 02:53:10;0.00;0.00;0.62;0.00;0.00;0.62;3.90;1.40;;;20.80;28.30;;;;;;2265453;61;20364;-64
2020/12/31 02:55:55;0.00;0.00;0.62;0.00;0.00;0.62;2.97;2.30;;;20.80;28.20;;;;;;2265247;61;20432;-65
2020/12/31 02:58:41;0.00;0.00;0.62;0.00;0.00;0.62;2.80;1.90;;;20.80;27.90;;;;;;2265311;61;20622;-66
2020/12/31 03:01:25;0.00;0.00;0.62;0.00;0.00;0.62;1.97;1.67;;;20.80;27.80;;;;;;2265371;61;20419;-65
2020/12/31 03:04:10;0.00;0.00;0.62;0.00;0.00;0.62;3.30;2.93;;;20.70;27.80;;;;;;2265280;61;20381;-66
2020/12/31 03:06:55;0.00;0.00;0.62;0.00;0.00;0.62;3.40;3.10;;;20.70;27.40;;;;;;2265464;61;20430;-67
2020/12/31 03:09:40;0.00;0.00;0.62;0.00;0.00;0.62;3.23;2.70;;;20.70;27.10;;;;;;2265366;61;20404;-64
2020/12/31 03:12:25;0.00;0.00;0.62;0.00;0.00;0.62;3.83;2.87;;;20.70;27.10;;;;;;2265231;61;20592;-65
2020/12/31 03:15:11;0.00;0.00;0.62;0.00;0.00;0.62;4.20;3.13;;;20.60;27.00;;;;;;2265449;61;20358;-66
2020/12/31 03:17:56;0.00;0.00;0.62;0.00;0.00;0.62;4.73;3.77;;;20.60;27.00;;;;;;2265098;61;20381;-67
2020/12/31 03:20:43;0.00;0.00;0.62;0.00;0.00;0.62;6.10;3.90;;;20.50;26.90;;;;;;2265350;61;20745;-67
2020/12/31 03:23:28;0.00;0.00;0.62;0.00;0.00;0.62;4.70;3.33;;;20.50;26.90;;;;;;2265352;61;20353;-67
2020/12/31 03:26:13;0.00;0.00;0.62;0.00;0.00;0.62;6.03;3.87;;;20.50;26.90;;;;;;2265251;61;20364;-67
2020/12/31 03:28:59;0.00;0.00;0.62;0.00;0.00;0.62;3.53;3.00;;;20.40;26.60;;;;;;2265275;61;20346;-67
2020/12/31 03:31:43;0.00;0.00;0.62;0.00;0.00;0.62;4.63;3.63;;;20.30;26.60;;;;;;2265301;61;20459;-66
2020/12/31 03:34:28;0.00;0.00;0.62;0.00;0.00;0.62;4.20;3.73;;;20.30;26.70;;;;;;2265153;61;20357;-65
2020/12/31 03:37:13;0.00;0.00;0.62;0.00;0.00;0.62;4.57;3.50;;;20.20;26.60;;;;;;2265273;61;20457;-64
2020/12/31 03:39:57;0.00;0.00;0.62;0.00;0.00;0.62;4.27;3.30;;;20.20;26.60;;;;;;2265073;61;20753;-66
2020/12/31 03:42:42;0.00;0.00;0.62;0.00;0.00;0.62;3.40;3.10;;;20.20;26.70;;;;;;2265370;61;20408;-64
2020/12/31 03:45:27;0.00;0.00;0.62;0.00;0.00;0.62;3.63;3.27;;;20.20;26.70;;;;;;2265448;61;20361;-65
2020/12/31 03:48:12;0.00;0.00;0.62;0.00;0.00;0.62;3.40;3.10;;;20.10;26.70;;;;;;2265222;61;20571;-65
2020/12/31 03:50:56;0.00;0.00;0.62;0.00;0.00;0.62;3.90;3.10;;;20.00;26.60;;;;;;2265288;61;20381;-65
2020/12/31 03:53:41;0.00;0.00;0.62;0.00;0.00;0.62;3.20;2.73;;;20.00;26.60;;;;;;2265459;61;20393;-64
2020/12/31 03:56:25;0.00;0.00;0.62;0.00;0.00;0.62;5.67;3.00;;;20.00;26.60;;;;;;2261862;61;20782;-65
2020/12/31 03:59:10;0.00;0.00;0.62;0.00;0.00;0.62;3.33;2.60;;;20.00;26.60;;;;;;2265229;61;20449;-64
2020/12/31 04:01:56;0.00;0.00;0.62;0.00;0.00;0.62;3.63;2.93;;;19.90;26.50;;;;;;2265309;61;20733;-65
2020/12/31 04:04:40;0.00;0.00;0.62;0.00;0.00;0.62;2.60;2.40;;;19.90;26.50;;;;;;2265236;61;20752;-64
2020/12/31 04:07:25;0.00;0.00;0.62;0.00;0.00;0.62;3.20;2.70;;;19.90;26.50;;;;;;2265294;61;20357;-66
2020/12/31 04:10:09;0.00;0.00;0.62;0.00;0.00;0.62;3.40;2.70;;;19.80;27.00;;;;;;2264846;61;20517;-64
2020/12/31 04:12:54;0.00;0.00;0.62;0.00;0.00;0.62;2.83;2.40;;;19.80;26.50;;;;;;2265128;61;20437;-66
2020/12/31 04:15:38;0.00;0.00;0.62;0.00;0.00;0.62;3.00;2.70;;;19.80;26.50;;;;;;2265288;61;20366;-66
2020/12/31 04:18:24;0.00;0.00;0.62;0.00;0.00;0.62;2.87;2.67;;;19.80;26.50;;;;;;2264820;61;20385;-64
2020/12/31 04:21:09;0.00;0.00;0.62;0.00;0.00;0.62;3.47;3.17;;;19.80;26.50;;;;;;2265136;61;20389;-66
2020/12/31 04:23:53;0.00;0.00;0.62;0.00;0.00;0.62;3.70;2.50;;;19.70;26.40;;;;;;2265100;61;20361;-66
2020/12/31 04:26:38;0.00;0.00;0.62;0.00;0.00;0.62;2.77;2.53;;;19.70;26.40;;;;;;2265024;61;20460;-66
2020/12/31 04:29:22;0.00;0.00;0.62;0.00;0.00;0.62;3.40;3.10;;;19.70;26.40;;;;;;2265075;61;20361;-66
2020/12/31 04:32:07;0.00;0.00;0.62;0.00;0.00;0.62;3.03;2.70;;;19.70;26.40;;;;;;2264800;61;20365;-66
2020/12/31 04:34:52;0.00;0.00;0.62;0.00;0.00;0.62;2.50;2.30;;;19.70;26.40;;;;;;2265146;61;20361;-66
2020/12/31 04:37:37;0.00;0.00;0.62;0.00;0.00;0.62;3.20;2.70;;;19.60;26.30;;;;;;2265142;61;20385;-65
2020/12/31 04:40:22;0.00;0.00;0.62;0.00;0.00;0.62;3.20;2.40;;;19.60;26.30;;;;;;2264773;61;20381;-67
2020/12/31 04:43:08;0.00;0.00;0.62;0.00;0.00;0.62;3.10;2.47;;;19.60;26.30;;;;;;2265205;61;20385;-65
2020/12/31 04:45:54;0.00;0.00;0.62;0.00;0.00;0.62;2.87;2.67;;;19.50;26.30;;;;;;2265105;61;20353;-66
2020/12/31 04:48:41;0.00;0.00;0.62;0.00;0.00;0.62;3.00;2.70;;;19.50;26.30;;;;;;2264774;61;20358;-65
2020/12/31 04:51:30;0.00;0.00;0.62;0.00;0.00;0.62;3.87;2.70;;;19.50;26.20;;;;;;2265678;61;20413;-65
2020/12/31 04:54:16;0.00;0.00;0.62;0.00;0.00;0.62;5.57;3.43;;;19.40;25.90;;;;;;2262360;61;20740;-64
2020/12/31 04:57:04;0.00;0.00;0.62;0.00;0.00;0.62;3.87;2.50;;;19.40;25.80;;;;;;2265714;61;20692;-64
2020/12/31 04:59:49;0.00;0.00;0.62;0.00;0.00;0.62;3.40;2.93;;;19.40;25.60;;;;;;2265617;61;20454;-64
2020/12/31 05:02:34;0.00;0.00;0.62;0.00;0.00;0.62;3.20;2.57;;;19.30;25.60;;;;;;2265495;61;20365;-65
2020/12/31 05:05:19;0.00;0.00;0.62;0.00;0.00;0.62;2.53;2.30;;;19.30;25.80;;;;;;2265784;61;20582;-65
2020/12/31 05:08:07;0.00;0.00;0.62;0.00;0.00;0.62;3.50;2.47;;;19.30;25.90;;;;;;2265632;61;20403;-65
2020/12/31 05:10:55;0.00;0.00;0.62;0.00;0.00;0.62;2.90;1.90;;;19.20;26.00;;;;;;2265516;61;20389;-67
2020/12/31 05:13:45;0.00;0.00;0.62;0.00;0.00;0.62;2.50;2.30;;;19.20;26.00;;;;;;2265684;61;20598;-64
2020/12/31 05:16:29;0.00;0.00;0.62;0.00;0.00;0.62;3.43;2.40;;;19.20;26.00;;;;;;2265478;61;20361;-64
2020/12/31 05:19:24;0.00;0.00;0.62;0.00;0.00;0.62;3.13;2.70;;;19.20;25.80;;;;;;2265645;61;20361;-64
2020/12/31 05:22:15;0.00;0.00;0.62;0.00;0.00;0.62;2.60;2.27;;;19.10;25.80;;;;;;2265582;61;20353;-63
2020/12/31 05:25:01;0.00;0.00;0.62;0.00;0.00;0.62;3.10;2.60;;;19.10;25.80;;;;;;2265533;61;20377;-64
2020/12/31 05:27:45;0.00;0.00;0.62;0.00;0.00;0.62;3.93;2.43;;;19.10;25.80;;;;;;2265737;61;20357;-67
2020/12/31 05:30:30;0.00;0.00;0.62;0.00;0.00;0.62;2.70;2.30;;;19.00;25.60;;;;;;2265622;61;20462;-66
2020/12/31 05:33:24;0.00;0.00;0.62;0.00;0.00;0.62;2.63;2.40;;;19.00;25.60;;;;;;2265486;61;20385;-65
2020/12/31 05:36:16;0.00;0.00;0.62;0.00;0.00;0.62;3.10;2.73;;;19.00;25.60;;;;;;2265579;61;20353;-65
2020/12/31 05:39:05;0.00;0.00;0.62;0.00;0.00;0.62;4.80;2.87;;;19.00;25.70;;;;;;2265333;61;20407;-66
2020/12/31 05:41:51;0.00;0.00;0.62;0.00;0.00;0.62;3.30;2.50;;;18.90;25.60;;;;;;2265622;61;20388;-66
2020/12/31 05:44:48;0.00;0.00;0.62;0.00;0.00;0.62;3.83;2.30;;;18.90;25.70;;;;;;2265824;61;20369;-64
2020/12/31 05:47:34;0.00;0.00;0.62;0.00;0.00;0.62;2.63;2.20;;;18.90;25.80;;;;;;2265416;61;20414;-66
2020/12/31 05:50:24;0.00;0.00;0.62;0.00;0.00;0.62;1.97;1.77;;;18.80;25.80;;;;;;2265604;61;20389;-66
2020/12/31 05:53:22;0.00;0.00;0.62;0.00;0.00;0.62;2.80;2.10;;;18.80;25.80;;;;;;2265467;61;20434;-66
2020/12/31 05:56:09;0.00;0.00;0.62;0.00;0.00;0.62;2.87;2.40;;;18.80;25.80;;;;;;2265677;61;20570;-65
2020/12/31 05:59:16;0.00;0.00;0.62;0.00;0.00;0.62;2.63;2.10;;;18.80;25.80;;;;;;2265696;61;20361;-67
2020/12/31 06:02:02;0.00;0.00;0.62;0.00;0.00;0.62;2.90;2.50;;;18.80;25.80;;;;;;2265540;61;20400;-64
2020/12/31 06:04:53;0.00;0.00;0.62;0.00;0.00;0.62;3.40;2.63;;;18.70;25.60;;;;;;2265856;61;20574;-65
2020/12/31 06:07:43;0.00;0.00;0.62;0.00;0.00;0.62;3.10;2.33;;;18.70;25.60;;;;;;2265952;61;20587;-65
2020/12/31 06:10:30;0.00;0.00;0.62;0.00;0.00;0.62;2.23;1.97;;;18.70;25.70;;;;;;2265836;61;20401;-65
2020/12/31 06:13:31;0.00;0.00;0.62;0.00;0.00;0.62;3.30;2.47;;;18.70;25.70;;;;;;2265855;61;20725;-64
2020/12/31 06:16:19;0.00;0.00;0.62;0.00;0.00;0.62;2.97;2.07;;;18.60;25.60;;;;;;2265644;61;20365;-64
2020/12/31 06:19:29;0.00;0.00;0.62;0.00;0.00;0.62;2.90;1.97;;;18.60;25.60;;;;;;2265680;61;20357;-65
2020/12/31 06:22:14;0.00;0.00;0.62;0.00;0.00;0.62;3.67;2.77;;;18.60;25.50;;;;;;2265866;61;20360;-66
2020/12/31 06:25:04;0.00;0.00;0.62;0.00;0.00;0.62;3.10;2.50;;;18.50;25.50;;;;;;2265646;61;20361;-66
2020/12/31 06:27:57;0.00;0.00;0.62;0.00;0.00;0.62;3.53;2.33;;;18.50;25.50;;;;;;2265852;61;20349;-65
2020/12/31 06:30:44;0.00;0.00;0.62;0.00;0.00;0.62;3.30;2.23;;;18.50;25.40;;;;;;2265708;61;20385;-66
2020/12/31 06:33:33;0.00;0.00;0.62;0.00;0.00;0.62;2.60;2.40;;;18.40;25.50;;;;;;2265763;61;20396;-65
2020/12/31 06:36:18;0.00;0.00;0.62;0.00;0.00;0.62;2.53;2.17;;;18.40;25.50;;;;;;2265823;61;20357;-66
2020/12/31 06:39:03;0.00;0.00;0.62;0.00;0.00;0.62;2.40;2.20;;;18.40;25.50;;;;;;2265462;61;20373;-67
2020/12/31 06:41:54;0.00;0.00;0.62;0.00;0.00;0.62;2.60;2.20;;;18.30;25.40;;;;;;2265761;61;20361;-66
2020/12/31 06:44:39;0.00;0.00;0.62;0.00;0.00;0.62;3.50;2.70;;;18.30;25.40;;;;;;2265839;61;20438;-65
2020/12/31 06:47:37;0.00;0.00;0.62;0.00;0.00;0.62;2.60;2.20;;;18.30;25.40;;;;;;2265670;61;20574;-65
2020/12/31 06:50:55;0.00;0.00;0.62;0.00;0.00;0.62;3.93;2.40;;;18.30;25.40;;;;;;2265894;61;20385;-65
2020/12/31 06:53:45;0.00;0.00;0.62;0.00;0.00;0.62;3.40;2.90;;;18.20;25.30;;;;;;2265615;61;20415;-66
2020/12/31 06:56:45;0.00;0.00;0.62;0.00;0.00;0.62;4.17;2.90;;;18.20;25.30;;;;;;2265730;61;20445;-66
2020/12/31 06:59:32;0.00;0.00;0.62;0.00;0.00;0.62;3.10;2.80;;;18.20;25.40;;;;;;2265672;61;20437;-65
2020/12/31 07:02:22;0.00;0.00;0.62;0.00;0.00;0.62;3.10;2.80;;;18.20;25.30;;;;;;2265627;61;20404;-65
2020/12/31 07:05:19;0.00;0.00;0.62;0.00;0.00;0.62;4.00;3.60;;;18.20;25.30;;;;;;2262633;61;20408;-65
2020/12/31 07:08:05;0.00;0.00;0.62;0.00;0.00;0.62;3.80;2.70;;;18.10;25.30;;;;;;2265380;61;20620;-65
2020/12/31 07:10:49;0.00;0.00;0.62;0.00;0.00;0.62;4.40;3.70;;;18.10;25.30;;;;;;2265731;61;20388;-65
2020/12/31 07:13:38;0.00;0.00;0.62;0.00;0.00;0.62;10.47;2.53;;;18.10;25.30;;;;;;2265566;61;20399;-65
2020/12/31 07:16:46;0.00;0.00;0.62;0.00;0.00;0.62;3.30;2.93;;;18.10;25.30;;;;;;2265491;61;20651;-65
2020/12/31 07:19:43;0.00;0.00;0.62;0.00;0.00;0.62;3.43;2.90;;;18.00;25.20;;;;;;2265645;61;20580;-66
2020/12/31 07:22:29;0.00;0.00;0.62;0.00;0.00;0.62;3.40;2.97;;;18.10;25.30;;;;;;2265421;61;20445;-66
2020/12/31 07:25:16;0.00;0.00;0.62;0.00;0.00;0.62;4.27;3.33;;;18.00;25.30;;;;;;2265661;61;20349;-66
2020/12/31 07:28:03;0.00;0.00;0.62;0.00;0.00;0.62;3.50;3.20;;;18.00;25.30;;;;;;2265606;61;20361;-65
2020/12/31 07:30:51;0.00;0.00;0.62;0.00;0.00;0.62;3.70;3.30;;;18.00;25.40;;;;;;2265389;61;20643;-65
2020/12/31 07:33:37;0.00;0.00;0.62;0.00;0.00;0.62;7.63;3.20;;;18.00;25.50;;;;;;2265672;61;20780;-66
2020/12/31 07:36:21;0.00;0.00;0.62;0.00;0.00;0.62;3.67;3.13;;;17.90;25.50;;;;;;2265623;61;20658;-66
2020/12/31 07:39:08;0.00;0.00;0.62;0.00;0.00;0.62;3.30;3.00;;;17.90;25.60;;;;;;2265427;61;20401;-66
2020/12/31 07:42:15;0.00;0.00;0.62;0.00;0.00;0.62;2.90;2.33;;;17.90;25.60;;;;;;2265629;61;20365;-66
2020/12/31 07:45:00;0.00;0.00;0.62;0.00;0.00;0.62;3.57;2.80;;;17.90;25.70;;;;;;2265382;61;20713;-65
2020/12/31 07:47:50;0.00;0.00;0.62;0.00;0.00;0.62;4.33;3.00;;;18.00;25.80;;;;;;2265653;61;20434;-66
2020/12/31 07:50:35;0.00;0.00;0.62;0.00;0.00;0.62;2.63;2.17;;;17.90;25.80;;;;;;2265624;61;20376;-65
2020/12/31 07:53:19;0.00;0.00;0.62;0.00;0.00;0.62;3.70;2.90;;;17.90;25.80;;;;;;2265658;61;20721;-65
2020/12/31 07:56:06;0.00;0.00;0.62;0.00;0.00;0.62;3.67;2.50;;;18.00;25.90;;;;;;2265797;61;20357;-66
2020/12/31 07:58:54;0.00;0.00;0.62;0.00;0.00;0.62;3.40;3.10;;;18.00;25.90;;;;;;2265421;61;20873;-66
2020/12/31 08:01:39;0.00;0.00;0.62;0.00;0.00;0.62;4.50;3.10;;;18.00;25.90;;;;;;2262427;61;20738;-66
2020/12/31 08:04:26;0.00;0.00;0.62;0.00;0.00;0.62;2.37;2.17;;;18.00;25.90;;;;;;2265203;61;20798;-66
2020/12/31 08:07:16;0.00;0.00;0.62;0.00;0.00;0.62;3.47;2.90;;;18.00;26.40;;;;;;2265359;61;20356;-65
2020/12/31 08:10:00;0.00;0.00;0.62;0.00;0.00;0.62;5.27;3.23;;;18.00;26.40;;;;;;2265522;61;20601;-67
2020/12/31 08:12:57;0.00;0.00;0.62;0.00;0.00;0.62;3.50;2.70;;;18.00;25.90;;;;;;2265435;61;20403;-67
2020/12/31 08:15:50;0.00;0.00;0.62;0.00;0.00;0.62;3.40;2.73;;;18.00;25.80;;;;;;2265584;61;20361;-67
2020/12/31 08:18:34;0.00;0.00;0.62;0.00;0.00;0.62;5.47;4.07;;;18.00;25.70;;;;;;2265478;61;20408;-67
2020/12/31 08:21:20;0.00;0.00;0.62;0.00;0.00;0.62;5.37;3.67;;;18.00;25.70;;;;;;2265243;61;20492;-67
2020/12/31 08:24:09;0.00;0.00;0.62;0.00;0.00;0.62;3.20;2.90;;;18.00;25.20;;;;;;2265772;61;20353;-66
2020/12/31 08:26:57;0.00;0.00;0.62;0.00;0.00;0.62;4.70;3.47;;;18.00;25.30;;;;;;2266158;61;20361;-67
2020/12/31 08:29:43;0.00;0.00;0.62;0.00;0.00;0.62;3.67;3.10;;;17.90;25.30;;;;;;2265989;61;20695;-67
2020/12/31 08:32:48;0.00;0.00;0.62;0.00;0.00;0.62;3.90;3.50;;;17.90;25.20;;;;;;2266202;61;20365;-66
2020/12/31 08:35:39;0.00;0.00;0.62;0.00;0.00;0.62;4.07;3.20;;;17.90;25.30;;;;;;2266249;61;20895;-66
2020/12/31 08:38:24;0.00;0.00;0.62;0.00;0.00;0.62;4.50;3.70;;;17.80;25.30;;;;;;2265112;61;20424;-67
2020/12/31 08:41:09;0.00;0.00;0.62;0.00;0.00;0.62;4.20;3.23;;;17.80;25.30;;;;;;2266137;61;20741;-66
2020/12/31 08:43:56;0.00;0.00;0.62;0.00;0.00;0.62;5.63;3.60;;;17.80;25.30;;;;;;2266237;61;20713;-66
2020/12/31 08:46:47;0.00;0.00;0.62;0.00;0.00;0.62;4.47;3.40;;;17.70;25.20;;;;;;2266140;61;20701;-67
2020/12/31 08:49:33;0.00;0.00;0.62;0.00;0.00;0.62;5.30;4.10;;;17.70;25.20;;;;;;2265734;61;20358;-64
2020/12/31 08:52:17;0.00;0.00;0.62;0.00;0.00;0.62;4.63;3.40;;;17.70;25.20;;;;;;2265633;61;20378;-65
2020/12/31 08:55:07;0.00;0.00;0.62;0.00;0.00;0.62;4.63;3.17;;;17.60;25.20;;;;;;2265726;61;20377;-65
2020/12/31 08:58:14;0.00;0.00;0.62;0.00;0.00;0.62;4.43;3.60;;;17.60;25.40;;;;;;2265989;61;20470;-65
2020/12/31 09:00:59;0.00;0.00;0.62;0.00;0.00;0.62;3.27;2.97;;;17.60;25.50;;;;;;2265484;61;20369;-64
2020/12/31 09:03:43;0.00;0.00;0.62;0.00;0.00;0.62;4.27;3.07;;;17.60;25.70;;;;;;2265735;61;20365;-66
2020/12/31 09:06:29;0.00;0.00;0.62;0.00;0.00;0.62;4.77;3.80;;;17.60;25.80;;;;;;2265549;61;20412;-66
2020/12/31 09:09:18;0.00;0.00;0.62;0.00;0.00;0.62;3.20;2.90;;;17.60;25.90;;;;;;2265293;61;20384;-65
2020/12/31 09:12:05;0.00;0.00;0.62;0.00;0.00;0.62;2.90;2.60;;;17.60;25.90;;;;;;2262584;61;20373;-63
2020/12/31 09:15:00;0.00;0.00;0.62;0.00;0.00;0.62;3.90;2.80;;;17.50;25.80;;;;;;2265600;61;20373;-63
2020/12/31 09:17:45;0.00;0.00;0.62;0.00;0.00;0.62;5.27;3.23;;;17.50;25.80;;;;;;2265901;61;20592;-64
2020/12/31 09:20:30;0.00;0.00;0.62;0.00;0.00;0.62;4.53;3.67;;;17.50;25.80;;;;;;2265536;61;20382;-63
2020/12/31 09:23:17;0.00;0.00;0.62;0.00;0.00;0.62;3.27;2.97;;;17.50;25.70;;;;;;2265691;61;20397;-67
2020/12/31 09:26:03;0.00;0.00;0.62;0.00;0.00;0.62;4.10;3.03;;;17.50;25.70;;;;;;2265697;61;20356;-64
2020/12/31 09:28:47;0.00;0.00;0.62;0.00;0.00;0.62;3.50;3.07;;;17.50;25.80;;;;;;2265419;61;20720;-65
2020/12/31 09:31:35;0.00;0.00;0.62;0.00;0.00;0.62;4.03;3.20;;;17.50;25.80;;;;;;2265565;61;20449;-66
2020/12/31 09:34:21;0.00;0.00;0.62;0.00;0.00;0.62;3.90;3.20;;;17.50;26.30;;;;;;2265688;61;20745;-62
2020/12/31 09:37:06;0.00;0.00;0.62;0.00;0.00;0.62;5.20;3.53;;;17.50;25.90;;;;;;2265326;61;20385;-62
2020/12/31 09:39:51;0.00;0.00;0.62;0.00;0.00;0.62;3.90;3.40;;;17.50;25.80;;;;;;2265555;61;20439;-63
2020/12/31 09:42:36;0.00;0.00;0.62;0.00;0.00;0.62;5.83;3.93;;;17.50;25.80;;;;;;2265502;61;20693;-64
2020/12/31 09:45:20;0.00;0.00;0.62;0.00;0.00;0.62;3.67;3.23;;;17.40;25.80;;;;;;2265658;61;20430;-63
2020/12/31 09:48:06;0.00;0.00;0.62;0.00;0.00;0.62;4.20;3.80;;;17.40;25.80;;;;;;2265514;61;20404;-65
2020/12/31 09:50:51;0.00;0.00;0.62;0.00;0.00;0.62;5.10;3.77;;;17.40;25.80;;;;;;2265365;61;20765;-64
2020/12/31 09:53:35;0.00;0.00;0.62;0.00;0.00;0.62;4.87;4.27;;;17.40;25.70;;;;;;2265686;61;20404;-63
2020/12/31 09:56:28;0.00;0.00;0.62;0.00;0.00;0.62;3.60;3.13;;;17.40;25.70;;;;;;2265635;61;20369;-65
2020/12/31 09:59:13;0.00;0.00;0.62;0.00;0.00;0.62;3.77;3.30;;;17.40;25.70;;;;;;2265085;61;20441;-64
2020/12/31 10:01:58;0.00;0.00;0.62;0.00;0.00;0.62;3.43;2.93;;;17.40;25.70;;;;;;2265552;61;20361;-61
2020/12/31 10:04:42;0.00;0.00;0.62;0.00;0.00;0.62;3.43;3.13;;;17.40;25.70;;;;;;2265556;61;20366;-59
2020/12/31 10:07:27;0.00;0.00;0.62;0.00;0.00;0.62;4.97;3.27;;;17.40;25.70;;;;;;2265421;61;20381;-62
2020/12/31 10:10:12;0.00;0.00;0.62;0.00;0.00;0.62;3.57;2.53;;;17.40;25.80;;;;;;2265608;61;20424;-61
2020/12/31 10:12:57;0.00;0.00;0.62;0.00;0.00;0.62;3.20;2.40;;;17.40;25.90;;;;;;2265242;61;20393;-62
2020/12/31 10:15:42;0.00;0.00;0.62;0.00;0.00;0.62;2.40;2.03;;;17.50;26.00;;;;;;2265739;61;20578;-62
2020/12/31 10:18:27;0.00;0.00;0.62;0.00;0.00;0.62;3.33;2.80;;;17.50;26.00;;;;;;2265400;61;20389;-61
2020/12/31 10:21:13;0.00;0.00;0.62;0.00;0.00;0.62;3.53;1.90;;;17.50;26.00;;;;;;2265223;61;20440;-62
2020/12/31 10:23:58;0.00;0.00;0.62;0.00;0.00;0.62;2.40;1.90;;;17.50;26.50;;;;;;2265517;61;20649;-62
2020/12/31 10:26:44;0.00;0.00;0.62;0.00;0.00;0.62;2.43;2.00;;;17.50;26.00;;;;;;2265554;61;20366;-61
2020/12/31 10:29:29;0.00;0.00;0.62;0.00;0.00;0.62;2.60;2.10;;;17.60;26.10;;;;;;2265408;61;20396;-61
2020/12/31 10:32:15;0.00;0.00;0.62;0.00;0.00;0.62;2.97;2.10;;;17.60;26.10;;;;;;2265503;61;20349;-61
2020/12/31 10:34:59;0.00;0.00;0.62;0.00;0.00;0.62;2.20;1.83;;;17.60;26.10;;;;;;2265225;61;20430;-61
2020/12/31 10:37:44;0.00;0.00;0.62;0.00;0.00;0.62;2.67;2.10;;;17.60;26.10;;;;;;2265453;61;20600;-61
2020/12/31 10:40:29;0.00;0.00;0.62;0.00;0.00;0.62;2.50;1.80;;;17.70;26.10;;;;;;2265466;61;20641;-61
2020/12/31 10:43:13;0.00;0.00;0.62;0.00;0.00;0.62;2.40;2.00;;;17.70;26.10;;;;;;2265124;61;20366;-61
2020/12/31 10:45:59;0.00;0.00;0.62;0.00;0.00;0.62;1.80;1.30;;;17.70;26.10;;;;;;2265617;61;20760;-61
2020/12/31 10:48:44;0.00;0.00;0.62;0.00;0.00;0.62;1.90;1.30;;;17.80;26.20;;;;;;2265314;61;20510;-61
2020/12/31 10:51:31;0.00;0.00;0.62;0.00;0.00;0.62;1.57;1.30;;;17.80;26.20;;;;;;2262028;61;20385;-62
2020/12/31 10:54:16;0.00;0.00;0.62;0.00;0.00;0.62;2.43;1.90;;;17.80;26.20;;;;;;2265469;61;20393;-61
2020/12/31 10:57:00;0.00;0.00;0.62;0.00;0.00;0.62;2.00;1.50;;;17.90;26.20;;;;;;2265106;61;20597;-61
2020/12/31 10:59:45;0.00;0.00;0.62;0.00;0.00;0.62;2.03;1.70;;;17.90;26.20;;;;;;2265272;61;20385;-61